createdAt,value
2023-03-15T00:01:46.768Z,10.10
2023-03-15T00:06:53.636Z,10.13
2023-03-15T00:11:57.034Z,10.18
2023-03-15T00:17:00.423Z,10.25
2023-03-15T00:22:03.773Z,10.31
2023-03-15T00:27:07.416Z,10.32
2023-03-15T00:32:10.784Z,10.33
2023-03-15T00:37:19.992Z,10.27
2023-03-15T00:42:27.588Z,9.91
2023-03-15T00:47:31.099Z,9.27
2023-03-15T00:52:38.563Z,8.77
2023-03-15T00:57:45.293Z,8.11
2023-03-15T01:02:49.319Z,7.55
2023-03-15T01:07:53.328Z,7.10
2023-03-15T01:12:56.702Z,6.67
2023-03-15T01:18:00.088Z,6.35
2023-03-15T01:23:03.404Z,6.16
2023-03-15T01:28:07.127Z,5.99
2023-03-15T01:33:11.775Z,5.79
2023-03-15T01:38:38.021Z,5.68
2023-03-15T01:43:47.436Z,5.64
2023-03-15T01:49:03.338Z,5.51
2023-03-15T01:54:17.703Z,5.40
2023-03-15T01:59:48.400Z,5.30
2023-03-15T02:05:12.024Z,5.27
2023-03-15T02:10:21.848Z,5.30
2023-03-15T02:15:29.221Z,5.29
2023-03-15T02:20:44.972Z,5.30
2023-03-15T02:26:09.876Z,5.28
2023-03-15T02:31:16.735Z,5.20
2023-03-15T02:36:30.122Z,5.16
2023-03-15T02:41:43.835Z,5.12
2023-03-15T02:46:51.000Z,5.11
2023-03-15T02:51:56.792Z,5.13
2023-03-15T02:57:02.042Z,5.13
2023-03-15T03:02:06.242Z,5.13
2023-03-15T03:07:11.166Z,5.14
2023-03-15T03:12:23.259Z,5.14
2023-03-15T03:17:26.859Z,5.15
2023-03-15T03:22:30.712Z,5.13
2023-03-15T03:27:39.854Z,5.17
2023-03-15T03:32:44.506Z,5.19
2023-03-15T03:37:49.368Z,5.23
2023-03-15T03:42:57.188Z,5.22
2023-03-15T03:48:23.527Z,5.21
2023-03-15T03:53:30.284Z,5.17
2023-03-15T03:58:47.107Z,5.18
2023-03-15T04:03:58.317Z,5.22
2023-03-15T04:09:25.108Z,5.28
2023-03-15T04:14:48.816Z,5.24
2023-03-15T04:19:56.975Z,5.19
2023-03-15T04:25:04.797Z,5.14
2023-03-15T04:31:12.474Z,5.10
2023-03-15T04:36:36.493Z,5.08
2023-03-15T04:42:18.348Z,5.07
2023-03-15T04:48:17.138Z,5.04
2023-03-15T04:53:39.949Z,5.01
2023-03-15T04:59:06.143Z,5.00
2023-03-15T05:04:29.777Z,4.99
2023-03-15T05:10:08.602Z,4.99
2023-03-15T05:15:23.261Z,4.98
2023-03-15T05:21:14.330Z,4.95
2023-03-15T05:26:29.938Z,4.91
2023-03-15T05:32:05.874Z,4.95
2023-03-15T05:37:24.195Z,4.93
2023-03-15T05:42:59.578Z,4.96
2023-03-15T05:48:15.783Z,4.98
2023-03-15T05:53:37.841Z,5.02
2023-03-15T05:59:07.056Z,4.95
2023-03-15T06:04:25.402Z,4.90
2023-03-15T06:09:44.267Z,4.87
2023-03-15T06:14:51.635Z,4.84
2023-03-15T06:19:55.308Z,4.82
2023-03-15T06:24:58.910Z,4.87
2023-03-15T06:30:02.556Z,4.89
2023-03-15T06:35:09.045Z,4.87
2023-03-15T06:40:14.515Z,4.90
2023-03-15T06:45:24.756Z,4.96
2023-03-15T06:50:34.402Z,5.07
2023-03-15T06:55:48.319Z,5.13
2023-03-15T07:00:54.234Z,5.24
2023-03-15T07:06:11.315Z,5.29
2023-03-15T07:11:14.656Z,5.26
2023-03-15T07:16:20.559Z,5.27
2023-03-15T07:21:37.568Z,5.27
2023-03-15T07:26:44.348Z,5.25
2023-03-15T07:31:51.442Z,5.30
2023-03-15T07:36:54.606Z,5.33
2023-03-15T07:42:11.921Z,5.38
2023-03-15T07:47:17.929Z,5.34
2023-03-15T07:52:24.275Z,5.30
2023-03-15T07:57:50.323Z,5.32
2023-03-15T08:02:54.746Z,5.39
2023-03-15T08:07:58.296Z,5.56
2023-03-15T08:13:01.627Z,5.58
2023-03-15T08:18:08.321Z,5.67
2023-03-15T08:23:16.448Z,5.80
2023-03-15T08:28:31.258Z,5.99
2023-03-15T08:33:36.942Z,6.06
2023-03-15T08:38:43.253Z,6.05
2023-03-15T08:43:46.702Z,5.93
2023-03-15T08:48:49.967Z,5.87
2023-03-15T08:53:53.989Z,5.90
2023-03-15T08:58:57.245Z,6.03
2023-03-15T09:04:01.882Z,6.17
2023-03-15T09:09:07.772Z,6.14
2023-03-15T09:14:11.057Z,6.23
2023-03-15T09:19:14.338Z,6.27
2023-03-15T09:24:18.395Z,6.37
2023-03-15T09:29:21.752Z,6.47
2023-03-15T09:34:27.462Z,6.58
2023-03-15T09:39:33.952Z,6.75
2023-03-15T09:44:45.500Z,6.80
2023-03-15T09:50:00.376Z,6.95
2023-03-15T09:55:25.944Z,6.97
2023-03-15T10:00:50.133Z,7.01
2023-03-15T10:05:57.997Z,6.98
2023-03-15T10:11:40.649Z,7.06
2023-03-15T10:16:47.329Z,7.08
2023-03-15T10:21:55.814Z,7.23
2023-03-15T10:28:03.020Z,7.29
2023-03-15T10:33:18.375Z,7.32
2023-03-15T10:38:23.569Z,7.40
2023-03-15T10:43:30.250Z,7.34
2023-03-15T10:48:41.363Z,7.28
2023-03-15T10:54:10.667Z,7.20
2023-03-15T10:59:26.478Z,7.28
2023-03-15T11:04:34.185Z,7.41
2023-03-15T11:09:40.930Z,7.55
2023-03-15T11:14:47.580Z,7.60
2023-03-15T11:20:13.252Z,7.64
2023-03-15T11:25:18.567Z,7.82
2023-03-15T11:30:29.273Z,7.82
2023-03-15T11:35:48.310Z,7.86
2023-03-15T11:40:56.877Z,7.91
2023-03-15T11:46:04.839Z,7.77
2023-03-15T11:51:36.703Z,7.70
2023-03-15T11:57:07.430Z,7.84
2023-03-15T12:02:11.276Z,7.81
2023-03-15T12:07:19.356Z,7.85
2023-03-15T12:12:25.819Z,7.90
2023-03-15T12:17:37.472Z,7.91
2023-03-15T12:22:46.125Z,7.94
2023-03-15T12:27:56.369Z,8.05
2023-03-15T12:33:21.743Z,8.04
2023-03-15T12:38:35.220Z,8.04
2023-03-15T12:44:03.378Z,8.17
2023-03-15T12:49:26.889Z,8.06
2023-03-15T12:54:37.642Z,7.96
2023-03-15T13:00:15.268Z,8.05
2023-03-15T13:05:35.522Z,7.96
2023-03-15T13:10:56.685Z,7.99
2023-03-15T13:16:28.077Z,7.96
2023-03-15T13:21:36.364Z,7.94
2023-03-15T13:27:10.247Z,7.81
2023-03-15T13:32:19.781Z,7.74
2023-03-15T13:37:26.426Z,7.73
2023-03-15T13:42:30.140Z,7.70
2023-03-15T13:47:35.112Z,7.67
2023-03-15T13:52:38.681Z,7.64
2023-03-15T13:57:42.280Z,7.69
2023-03-15T14:02:59.222Z,7.64
2023-03-15T14:08:06.214Z,7.49
2023-03-15T14:13:47.876Z,7.41
2023-03-15T14:18:53.040Z,7.39
2023-03-15T14:23:56.577Z,7.37
2023-03-15T14:29:26.340Z,7.28
2023-03-15T14:34:43.793Z,7.18
2023-03-15T14:39:53.800Z,7.05
2023-03-15T14:44:57.148Z,6.95
2023-03-15T14:50:01.208Z,6.91
2023-03-15T14:55:09.664Z,6.83
2023-03-15T15:00:21.544Z,6.85
2023-03-15T15:05:31.103Z,6.81
2023-03-15T15:10:34.993Z,6.83
2023-03-15T15:15:54.137Z,6.89
2023-03-15T15:21:05.309Z,6.96
2023-03-15T15:26:19.135Z,6.88
2023-03-15T15:31:24.335Z,6.73
2023-03-15T15:36:52.111Z,6.62
2023-03-15T15:41:56.508Z,6.57
2023-03-15T15:47:02.214Z,6.55
2023-03-15T15:52:05.646Z,6.51
2023-03-15T15:57:14.368Z,6.43
2023-03-15T16:02:58.418Z,6.34
2023-03-15T16:08:22.443Z,6.28
2023-03-15T16:13:29.246Z,6.19
2023-03-15T16:18:35.029Z,6.11
2023-03-15T16:23:38.844Z,6.05
2023-03-15T16:28:48.091Z,5.96
2023-03-15T16:34:13.535Z,5.88
2023-03-15T16:39:27.489Z,5.78
2023-03-15T16:44:31.138Z,5.70
2023-03-15T16:50:04.739Z,5.61
2023-03-15T16:55:17.413Z,5.54
2023-03-15T17:00:24.548Z,5.49
2023-03-15T17:05:28.221Z,5.44
2023-03-15T17:10:32.543Z,5.37
2023-03-15T17:15:35.923Z,5.31
2023-03-15T17:20:39.895Z,5.22
2023-03-15T17:25:43.566Z,5.16
2023-03-15T17:30:55.198Z,5.10
2023-03-15T17:36:07.274Z,5.05
2023-03-15T17:41:47.562Z,5.01
2023-03-15T17:47:02.085Z,4.91
2023-03-15T17:52:19.164Z,4.75
2023-03-15T17:57:26.058Z,4.60
2023-03-15T18:02:56.361Z,4.41
2023-03-15T18:08:00.751Z,4.24
2023-03-15T18:13:04.808Z,4.12
2023-03-15T18:18:09.139Z,3.97
2023-03-15T18:23:32.964Z,3.89
2023-03-15T18:28:37.157Z,3.86
2023-03-15T18:34:03.657Z,3.79
2023-03-15T18:39:25.607Z,3.67
2023-03-15T18:44:32.145Z,3.55
2023-03-15T18:49:45.656Z,3.39
2023-03-15T18:54:49.174Z,3.31
2023-03-15T18:59:58.271Z,3.22
2023-03-15T19:05:04.961Z,3.14
2023-03-15T19:10:29.296Z,3.14
2023-03-15T19:15:35.096Z,3.15
2023-03-15T19:20:42.139Z,3.16
2023-03-15T19:26:14.962Z,3.15
2023-03-15T19:32:03.029Z,3.09
2023-03-15T19:37:26.879Z,2.94
2023-03-15T19:43:38.424Z,2.78
2023-03-15T19:49:10.711Z,2.65
2023-03-15T19:54:54.796Z,2.60
2023-03-15T20:00:12.749Z,2.52
2023-03-15T20:05:55.324Z,2.47
2023-03-15T20:11:53.372Z,2.51
2023-03-15T20:17:49.442Z,2.49
2023-03-15T20:23:08.689Z,2.46
2023-03-15T20:28:14.680Z,2.47
2023-03-15T20:33:41.449Z,2.40
2023-03-15T20:39:02.393Z,2.29
2023-03-15T20:44:08.715Z,2.21
2023-03-15T20:49:22.578Z,2.17
2023-03-15T20:55:06.972Z,2.17
2023-03-15T21:00:58.657Z,2.14
2023-03-15T21:06:11.283Z,2.20
2023-03-15T21:11:27.524Z,2.27
2023-03-15T21:16:34.240Z,2.32
2023-03-15T21:21:47.562Z,2.31
2023-03-15T21:26:54.829Z,2.28
2023-03-15T21:32:00.910Z,2.26
2023-03-15T21:37:17.550Z,2.27
2023-03-15T21:42:20.980Z,2.28
2023-03-15T21:47:24.656Z,2.35
2023-03-15T21:52:28.146Z,2.49
2023-03-15T21:57:40.641Z,2.60
2023-03-15T22:02:44.475Z,2.65
2023-03-15T22:07:48.952Z,2.70
2023-03-15T22:12:55.821Z,2.70
2023-03-15T22:18:33.165Z,2.68
2023-03-15T22:23:39.671Z,2.71
2023-03-15T22:28:46.174Z,2.71
2023-03-15T22:33:50.146Z,2.72
2023-03-15T22:38:53.875Z,2.71
2023-03-15T22:43:57.897Z,2.73
2023-03-15T22:49:07.435Z,2.73
2023-03-15T22:54:33.389Z,2.69
2023-03-15T22:59:43.532Z,2.64
2023-03-15T23:04:49.320Z,2.58
2023-03-15T23:09:52.823Z,2.54
2023-03-15T23:15:03.567Z,2.51
2023-03-15T23:20:28.452Z,2.49
2023-03-15T23:26:05.177Z,2.49
2023-03-15T23:31:08.984Z,2.47
2023-03-15T23:36:37.892Z,2.43
2023-03-15T23:41:41.470Z,2.39
2023-03-15T23:47:05.235Z,2.34
2023-03-15T23:52:49.307Z,2.27
2023-03-15T23:57:52.719Z,2.17
